Time;durP1;ratioP1;P1;durP2;ratioP2;P2;SDS_P1;SDS_P2;PMS_P1;PMS_P2;Temp;Humidity;BMP_temperature;BMP_pressure;BME280_temperature;BME280_humidity;BME280_pressure;Samples;Min_cycle;Max_cycle;Signal;HPM_P1;HPM_P2
2021/06/28 00:00:39;;;;;;;3.23;2.50;;;27.10;49.60;;;;;;5027656;28;20876;-48
2021/06/28 00:03:05;;;;;;;2.70;2.50;;;27.00;50.40;;;;;;5026346;28;20444;-49
2021/06/28 00:05:31;;;;;;;3.10;2.43;;;26.60;51.00;;;;;;5027558;28;20194;-49
2021/06/28 00:07:57;;;;;;;3.00;2.80;;;26.50;51.70;;;;;;5028795;28;20199;-50
2021/06/28 00:10:28;;;;;;;2.60;2.40;;;26.20;53.00;;;;;;5026173;28;20277;-52
2021/06/28 00:12:56;;;;;;;2.50;2.30;;;26.20;53.00;;;;;;5026813;28;20798;-50
2021/06/28 00:15:25;;;;;;;2.50;2.30;;;26.00;53.80;;;;;;5027699;28;20436;-49
2021/06/28 00:17:52;;;;;;;2.50;2.33;;;26.00;54.30;;;;;;5027730;28;20444;-49
2021/06/28 00:20:18;;;;;;;2.53;2.43;;;26.10;54.00;;;;;;5030220;28;21001;-49
2021/06/28 00:22:45;;;;;;;2.57;2.37;;;26.20;54.00;;;;;;5027734;28;20475;-49
2021/06/28 00:25:13;;;;;;;2.20;2.00;;;26.50;53.60;;;;;;5026478;28;20858;-47
2021/06/28 00:27:39;;;;;;;2.70;2.50;;;26.80;52.80;;;;;;5027531;28;20510;-53
2021/06/28 00:30:08;;;;;;;2.53;2.33;;;26.80;52.70;;;;;;5030847;28;20467;-49
2021/06/28 00:32:34;;;;;;;7.13;2.63;;;27.10;52.80;;;;;;5026924;28;20463;-50
2021/06/28 00:34:59;;;;;;;8.80;2.60;;;27.20;52.70;;;;;;5026113;28;20452;-49
2021/06/28 00:37:25;;;;;;;3.90;2.60;;;27.30;52.50;;;;;;5028520;28;20796;-49
2021/06/28 00:39:51;;;;;;;2.87;2.33;;;27.30;52.60;;;;;;5029589;28;20255;-49
2021/06/28 00:42:16;;;;;;;5.77;2.80;;;27.10;53.10;;;;;;5030675;28;20193;-50
2021/06/28 00:44:42;;;;;;;5.23;2.10;;;26.80;53.70;;;;;;5024917;28;20202;-51
2021/06/28 00:47:08;;;;;;;2.83;2.23;;;26.70;54.30;;;;;;5026888;28;20193;-48
2021/06/28 00:49:33;;;;;;;2.33;2.23;;;26.80;54.40;;;;;;5027849;28;20870;-49
2021/06/28 00:51:59;;;;;;;3.53;2.43;;;26.60;54.50;;;;;;5027574;28;20280;-49
2021/06/28 00:54:26;;;;;;;2.63;2.43;;;26.40;55.10;;;;;;5027252;28;20657;-48
2021/06/28 00:56:52;;;;;;;3.07;2.83;;;26.20;55.60;;;;;;5026982;28;20239;-48
2021/06/28 00:59:20;;;;;;;3.17;2.70;;;26.10;56.00;;;;;;5025875;28;22554;-52
2021/06/28 01:01:46;;;;;;;2.60;2.40;;;26.10;56.30;;;;;;5024331;28;20492;-50
2021/06/28 01:04:11;;;;;;;4.83;2.70;;;26.20;56.10;;;;;;5030416;28;20973;-50
2021/06/28 01:06:37;;;;;;;2.63;2.43;;;26.30;56.10;;;;;;5030405;28;20208;-50
2021/06/28 01:09:03;;;;;;;3.50;3.20;;;26.50;55.50;;;;;;5024815;28;20607;-49
2021/06/28 01:11:29;;;;;;;2.83;2.63;;;26.50;56.00;;;;;;5026781;28;20215;-48
2021/06/28 01:13:54;;;;;;;2.97;2.73;;;26.30;55.80;;;;;;5026522;28;20542;-50
2021/06/28 01:16:20;;;;;;;3.87;2.23;;;26.20;56.20;;;;;;5028347;28;20197;-50
2021/06/28 01:18:46;;;;;;;2.73;2.47;;;26.40;56.00;;;;;;5021561;28;20193;-48
2021/06/28 01:21:14;;;;;;;3.30;3.00;;;26.60;55.30;;;;;;5024041;28;20311;-51
2021/06/28 01:23:40;;;;;;;2.70;2.50;;;26.80;54.90;;;;;;5024774;28;20448;-48
2021/06/28 01:26:09;;;;;;;2.80;2.60;;;27.00;54.80;;;;;;5028330;28;20451;-51
2021/06/28 01:28:35;;;;;;;3.70;2.80;;;26.80;54.60;;;;;;5027606;28;20692;-49
2021/06/28 01:31:06;;;;;;;3.03;2.73;;;26.70;54.80;;;;;;5025418;28;20440;-53
2021/06/28 01:33:32;;;;;;;2.57;2.37;;;26.40;55.70;;;;;;5023959;28;20459;-47
2021/06/28 01:35:58;;;;;;;3.10;2.90;;;26.20;56.00;;;;;;5029284;28;20443;-49
2021/06/28 01:38:24;;;;;;;2.20;2.10;;;26.20;56.00;;;;;;5028144;28;20810;-53
2021/06/28 01:40:50;;;;;;;3.17;2.43;;;26.10;56.10;;;;;;5024522;28;20240;-51
2021/06/28 01:43:16;;;;;;;2.90;2.67;;;26.30;55.70;;;;;;5027276;28;20462;-49
2021/06/28 01:45:42;;;;;;;2.47;2.33;;;26.30;55.70;;;;;;5023505;28;20451;-53
2021/06/28 01:48:08;;;;;;;2.90;2.70;;;26.50;55.10;;;;;;5027690;28;20797;-51
2021/06/28 01:50:36;;;;;;;2.73;2.50;;;26.70;55.30;;;;;;5027944;28;20197;-49
2021/06/28 01:53:03;;;;;;;2.67;2.47;;;26.90;54.20;;;;;;5022242;28;20463;-51
2021/06/28 01:55:29;;;;;;;2.90;2.50;;;27.10;53.90;;;;;;5025717;28;20455;-51
2021/06/28 01:57:57;;;;;;;2.60;2.50;;;27.20;53.60;;;;;;5026636;28;20538;-52
2021/06/28 02:00:26;;;;;;;2.90;2.70;;;27.20;53.50;;;;;;5025786;28;20507;-53
2021/06/28 02:03:03;;;;;;;2.47;2.27;;;27.40;53.20;;;;;;5026299;28;22706;-53
2021/06/28 02:05:32;;;;;;;2.53;2.33;;;27.40;52.90;;;;;;5020606;28;20459;-52
2021/06/28 02:07:58;;;;;;;2.93;2.70;;;27.50;53.00;;;;;;5028872;28;20448;-48
2021/06/28 02:10:24;;;;;;;3.70;2.30;;;27.50;52.80;;;;;;5019442;28;20868;-52
2021/06/28 02:12:50;;;;;;;2.57;2.47;;;27.50;52.80;;;;;;5027021;28;20455;-52
2021/06/28 02:15:21;;;;;;;3.30;3.10;;;27.60;52.60;;;;;;5025293;28;20452;-49
2021/06/28 02:17:47;;;;;;;3.20;2.40;;;27.60;52.50;;;;;;5021921;28;20494;-52
2021/06/28 02:20:13;;;;;;;4.70;2.40;;;27.70;52.30;;;;;;5024677;28;20590;-50
2021/06/28 02:22:39;;;;;;;2.90;2.70;;;27.70;52.30;;;;;;5020459;28;20531;-52
2021/06/28 02:25:07;;;;;;;2.70;2.50;;;27.80;52.20;;;;;;5021652;28;20444;-53
2021/06/28 02:27:33;;;;;;;3.00;2.70;;;27.80;52.10;;;;;;5018993;28;20900;-52
2021/06/28 02:29:59;;;;;;;2.87;2.70;;;27.80;51.80;;;;;;5019558;28;20452;-49
2021/06/28 02:32:24;;;;;;;3.87;2.53;;;27.80;51.80;;;;;;5025817;28;20551;-51
2021/06/28 02:34:50;;;;;;;3.17;2.30;;;27.90;51.60;;;;;;5028013;28;20197;-53
2021/06/28 02:37:15;;;;;;;3.40;2.47;;;27.90;51.60;;;;;;5024442;28;20200;-49
2021/06/28 02:39:41;;;;;;;3.17;2.97;;;27.90;51.60;;;;;;5029629;28;20190;-50
2021/06/28 02:42:07;;;;;;;2.50;2.27;;;27.90;51.60;;;;;;5026233;28;20276;-53
2021/06/28 02:44:33;;;;;;;2.70;2.50;;;27.90;51.50;;;;;;5026636;28;20276;-53
2021/06/28 02:46:58;;;;;;;3.63;2.80;;;28.00;51.60;;;;;;5026901;28;20299;-48
2021/06/28 02:49:24;;;;;;;2.80;2.60;;;28.00;51.30;;;;;;5026149;28;20667;-49
2021/06/28 02:51:49;;;;;;;5.30;2.83;;;28.00;51.30;;;;;;5028270;28;20614;-51
2021/06/28 02:54:15;;;;;;;2.37;2.27;;;28.00;51.20;;;;;;5025274;28;20310;-53
2021/06/28 02:56:40;;;;;;;2.87;2.67;;;28.00;51.10;;;;;;5033067;28;20670;-53
2021/06/28 02:59:09;;;;;;;2.80;2.60;;;28.10;51.20;;;;;;5031002;28;20562;-48
2021/06/28 03:01:34;;;;;;;2.87;2.57;;;28.10;51.10;;;;;;5031977;28;20629;-52
2021/06/28 03:04:00;;;;;;;2.50;2.40;;;28.10;51.10;;;;;;5022816;28;20435;-52
2021/06/28 03:06:25;;;;;;;2.70;2.50;;;28.00;51.30;;;;;;5026949;28;20288;-53
2021/06/28 03:08:51;;;;;;;2.67;2.47;;;27.90;51.30;;;;;;5027739;28;20192;-51
2021/06/28 03:11:19;;;;;;;2.37;2.27;;;27.90;51.50;;;;;;5031095;28;20711;-53
2021/06/28 03:13:45;;;;;;;2.97;2.77;;;27.90;51.60;;;;;;5030285;28;20213;-48
2021/06/28 03:16:10;;;;;;;2.70;2.50;;;27.80;51.80;;;;;;5031431;28;20444;-53
2021/06/28 03:18:36;;;;;;;2.60;2.40;;;27.90;51.60;;;;;;5027953;28;20567;-49
2021/06/28 03:21:04;;;;;;;2.73;2.60;;;27.90;51.60;;;;;;5027231;28;20216;-51
2021/06/28 03:23:30;;;;;;;2.63;2.43;;;27.90;51.60;;;;;;5029033;28;20308;-53
2021/06/28 03:25:55;;;;;;;2.70;2.50;;;27.90;51.60;;;;;;5028145;28;20534;-51
2021/06/28 03:28:21;;;;;;;2.80;2.60;;;27.90;51.50;;;;;;5031841;28;20189;-53
2021/06/28 03:30:47;;;;;;;3.30;3.00;;;27.90;51.40;;;;;;5027618;28;20194;-53
2021/06/28 03:33:13;;;;;;;2.87;2.57;;;27.90;51.40;;;;;;5029027;28;20194;-52
2021/06/28 03:35:38;;;;;;;2.80;2.60;;;28.00;51.50;;;;;;5030621;28;21190;-51
2021/06/28 03:38:04;;;;;;;2.77;2.63;;;28.00;51.50;;;;;;5028703;28;20201;-53
2021/06/28 03:40:32;;;;;;;2.83;2.60;;;27.90;51.50;;;;;;5028632;28;20237;-49
2021/06/28 03:43:00;;;;;;;3.53;2.97;;;27.90;51.50;;;;;;5029835;28;20448;-53
2021/06/28 03:45:26;;;;;;;3.10;2.70;;;27.90;51.50;;;;;;5031837;28;20432;-49
2021/06/28 03:47:51;;;;;;;3.20;3.00;;;27.90;51.50;;;;;;5024375;28;20501;-52
2021/06/28 03:50:17;;;;;;;2.80;2.60;;;27.90;51.60;;;;;;5030616;28;20251;-49
2021/06/28 03:52:43;;;;;;;2.77;2.57;;;27.90;51.60;;;;;;5025688;28;20297;-53
2021/06/28 03:55:09;;;;;;;2.47;2.27;;;27.90;51.60;;;;;;5029982;28;20197;-53
2021/06/28 03:57:35;;;;;;;3.10;2.70;;;27.90;51.70;;;;;;5029002;28;20193;-52
2021/06/28 04:00:06;;;;;;;3.30;3.03;;;27.90;51.80;;;;;;5027905;28;20497;-49
2021/06/28 04:02:34;;;;;;;3.20;2.97;;;27.80;52.00;;;;;;5028023;28;20293;-53
2021/06/28 04:05:00;;;;;;;3.80;3.07;;;27.80;52.80;;;;;;5026134;28;20985;-52
2021/06/28 04:07:25;;;;;;;3.93;2.63;;;27.60;52.50;;;;;;5029771;28;20436;-52
2021/06/28 04:09:51;;;;;;;3.30;3.00;;;27.50;52.90;;;;;;5028385;28;20193;-52
2021/06/28 04:12:16;;;;;;;3.50;3.10;;;27.20;53.20;;;;;;5028168;28;20200;-53
2021/06/28 04:14:42;;;;;;;4.13;2.90;;;27.20;53.40;;;;;;5027516;28;20679;-52
2021/06/28 04:17:08;;;;;;;3.40;3.10;;;27.20;53.60;;;;;;5027838;28;20206;-51
2021/06/28 04:19:34;;;;;;;3.63;2.93;;;26.90;54.00;;;;;;5031588;28;20193;-52
2021/06/28 04:22:00;;;;;;;3.83;2.63;;;26.90;54.30;;;;;;5030956;28;20950;-52
2021/06/28 04:24:25;;;;;;;4.73;3.40;;;27.00;54.60;;;;;;5027183;28;20537;-51
2021/06/28 04:26:51;;;;;;;3.13;2.73;;;27.10;53.80;;;;;;5024396;28;20239;-53
2021/06/28 04:29:17;;;;;;;2.87;2.67;;;27.10;54.00;;;;;;5021423;28;20204;-53
2021/06/28 04:31:42;;;;;;;2.60;2.40;;;27.20;53.80;;;;;;5029895;28;20197;-53
2021/06/28 04:34:08;;;;;;;2.37;2.20;;;27.20;53.70;;;;;;5027030;28;20679;-53
2021/06/28 04:36:34;;;;;;;3.13;2.83;;;27.20;53.50;;;;;;5020044;28;20649;-52
2021/06/28 04:38:59;;;;;;;2.87;2.67;;;27.20;53.80;;;;;;5026325;28;20632;-53
2021/06/28 04:41:25;;;;;;;2.83;2.60;;;27.20;53.90;;;;;;5027062;28;20244;-51
2021/06/28 04:43:51;;;;;;;3.17;2.87;;;27.30;53.60;;;;;;5029745;28;20200;-51
2021/06/28 04:46:16;;;;;;;3.13;2.40;;;27.40;53.50;;;;;;5025405;28;20220;-52
2021/06/28 04:48:42;;;;;;;3.20;2.30;;;27.50;53.30;;;;;;5022506;28;20224;-48
2021/06/28 04:51:07;;;;;;;3.73;2.83;;;27.50;53.20;;;;;;5026769;28;20277;-50
2021/06/28 04:53:33;;;;;;;4.57;3.10;;;27.70;53.10;;;;;;5029807;28;20189;-49
2021/06/28 04:55:59;;;;;;;7.53;3.03;;;27.60;53.40;;;;;;5020878;28;20201;-48
2021/06/28 04:58:24;;;;;;;3.03;2.80;;;27.60;53.40;;;;;;5028968;28;20226;-48
2021/06/28 05:00:50;;;;;;;2.90;2.70;;;27.70;53.20;;;;;;5025232;28;20308;-51
2021/06/28 05:03:16;;;;;;;2.90;2.70;;;27.70;53.10;;;;;;5027477;28;20683;-49
2021/06/28 05:05:41;;;;;;;2.70;2.50;;;27.80;52.90;;;;;;5026724;28;20197;-52
2021/06/28 05:08:07;;;;;;;3.23;3.00;;;27.70;53.10;;;;;;5025798;28;20197;-53
2021/06/28 05:10:32;;;;;;;3.70;3.40;;;27.70;53.20;;;;;;5024793;28;20579;-50
2021/06/28 05:12:58;;;;;;;7.10;2.87;;;27.40;54.20;;;;;;5014263;28;20204;-54
2021/06/28 05:15:23;;;;;;;3.40;3.20;;;27.30;54.80;;;;;;5024641;28;20653;-52
2021/06/28 05:17:49;;;;;;;5.20;3.57;;;27.40;54.10;;;;;;5024384;28;20342;-50
2021/06/28 05:20:15;;;;;;;3.17;2.97;;;27.50;53.90;;;;;;5024628;28;20210;-49
2021/06/28 05:22:42;;;;;;;3.17;2.87;;;27.50;54.00;;;;;;5028436;28;20193;-53
2021/06/28 05:25:09;;;;;;;3.43;3.13;;;27.20;54.50;;;;;;5027579;28;20280;-51
2021/06/28 05:27:35;;;;;;;3.37;3.17;;;27.20;54.50;;;;;;5027420;28;20447;-51
2021/06/28 05:30:05;;;;;;;3.80;3.30;;;27.20;54.60;;;;;;5022352;28;20440;-54
2021/06/28 05:32:31;;;;;;;3.40;3.20;;;27.30;54.30;;;;;;5025332;28;20570;-53
2021/06/28 05:34:56;;;;;;;3.40;3.20;;;27.40;54.20;;;;;;5027109;28;20540;-51
2021/06/28 05:37:22;;;;;;;3.30;3.10;;;27.50;54.20;;;;;;5023098;28;20189;-53
2021/06/28 05:39:48;;;;;;;3.80;3.47;;;27.30;54.50;;;;;;5027974;28;20233;-53
2021/06/28 05:42:14;;;;;;;3.77;3.40;;;27.30;54.40;;;;;;5027953;28;20240;-52
2021/06/28 05:44:41;;;;;;;4.27;3.57;;;27.40;54.40;;;;;;5026430;28;20492;-50
2021/06/28 05:47:07;;;;;;;3.97;3.23;;;27.40;54.40;;;;;;5027623;28;20493;-54
2021/06/28 05:49:36;;;;;;;4.00;3.60;;;27.50;54.30;;;;;;5025331;28;20517;-50
2021/06/28 05:52:02;;;;;;;3.40;3.20;;;27.50;54.40;;;;;;5029459;28;20439;-50
2021/06/28 05:54:28;;;;;;;3.93;3.40;;;27.60;54.20;;;;;;5024180;28;20450;-53
2021/06/28 05:56:53;;;;;;;3.87;3.37;;;27.60;53.90;;;;;;5029005;28;20448;-54
2021/06/28 05:59:19;;;;;;;4.20;3.20;;;27.70;53.80;;;;;;5023055;28;20196;-55
2021/06/28 06:01:44;;;;;;;3.57;3.37;;;27.80;53.80;;;;;;5029267;28;20698;-54
2021/06/28 06:04:14;;;;;;;3.23;3.03;;;27.80;53.70;;;;;;5017885;28;20202;-51
2021/06/28 06:06:44;;;;;;;3.60;3.27;;;27.90;53.60;;;;;;5028373;28;20204;-52
2021/06/28 06:09:10;;;;;;;3.33;3.13;;;27.90;53.30;;;;;;5025927;28;20446;-53
2021/06/28 06:11:37;;;;;;;2.80;2.63;;;28.00;53.20;;;;;;5026560;28;20934;-53
2021/06/28 06:14:03;;;;;;;3.47;3.17;;;28.10;52.90;;;;;;5025072;28;20436;-49
2021/06/28 06:16:28;;;;;;;3.30;3.00;;;28.10;52.60;;;;;;5023516;28;20478;-54
2021/06/28 06:18:54;;;;;;;4.70;3.27;;;28.20;52.60;;;;;;5021797;28;20451;-54
2021/06/28 06:21:21;;;;;;;3.33;3.13;;;28.20;52.00;;;;;;5025371;28;20291;-52
2021/06/28 06:23:47;;;;;;;3.17;2.87;;;28.20;52.40;;;;;;5028273;28;20225;-53
2021/06/28 06:26:12;;;;;;;3.83;3.50;;;28.10;52.60;;;;;;5026863;28;20499;-53
2021/06/28 06:28:38;;;;;;;3.43;3.13;;;28.10;52.90;;;;;;5029680;28;20209;-53
2021/06/28 06:31:04;;;;;;;3.57;3.27;;;28.20;53.00;;;;;;5021515;28;20189;-51
2021/06/28 06:33:29;;;;;;;6.83;3.70;;;28.40;52.70;;;;;;5029444;28;20197;-49
2021/06/28 06:35:55;;;;;;;3.93;3.57;;;28.30;52.50;;;;;;5027735;28;20280;-50
2021/06/28 06:38:21;;;;;;;5.13;3.50;;;28.30;52.60;;;;;;5033126;28;20680;-48
2021/06/28 06:40:48;;;;;;;4.03;3.63;;;28.40;52.50;;;;;;5031891;28;20245;-49
2021/06/28 06:43:15;;;;;;;3.63;3.27;;;28.50;52.00;;;;;;5031109;28;20205;-53
2021/06/28 06:45:41;;;;;;;3.50;3.20;;;28.50;52.10;;;;;;5032156;28;20824;-48
2021/06/28 06:48:07;;;;;;;3.60;3.30;;;28.50;52.00;;;;;;5027089;28;20440;-49
2021/06/28 06:50:32;;;;;;;3.73;3.30;;;28.60;51.80;;;;;;5031148;28;20292;-52
2021/06/28 06:52:59;;;;;;;3.80;3.50;;;28.70;51.90;;;;;;5029494;28;20296;-52
2021/06/28 06:55:26;;;;;;;3.80;3.50;;;28.80;52.00;;;;;;5029600;28;20243;-52
2021/06/28 06:57:52;;;;;;;4.23;3.90;;;28.70;51.80;;;;;;5033394;28;20524;-50
2021/06/28 07:00:20;;;;;;;3.63;3.13;;;28.70;51.90;;;;;;5028351;28;20495;-49
2021/06/28 07:02:47;;;;;;;3.80;3.40;;;28.80;52.00;;;;;;5031355;28;20471;-49
2021/06/28 07:05:15;;;;;;;4.20;3.30;;;28.90;52.20;;;;;;5029780;28;21001;-49
2021/06/28 07:07:41;;;;;;;3.40;3.20;;;29.20;51.80;;;;;;5032507;28;20494;-49
2021/06/28 07:10:09;;;;;;;3.60;3.27;;;29.30;51.20;;;;;;5031716;28;20446;-51
2021/06/28 07:12:35;;;;;;;3.60;3.00;;;29.60;51.10;;;;;;5031512;28;20428;-49
2021/06/28 07:15:01;;;;;;;3.37;3.17;;;29.70;51.10;;;;;;5028812;28;20518;-52
2021/06/28 07:17:26;;;;;;;3.17;2.90;;;29.80;50.60;;;;;;5031556;28;20196;-49
2021/06/28 07:19:52;;;;;;;5.00;3.60;;;29.90;50.60;;;;;;5028173;28;20198;-49
2021/06/28 07:22:17;;;;;;;3.53;3.33;;;30.10;49.70;;;;;;5028282;28;20661;-49
2021/06/28 07:24:44;;;;;;;2.90;2.67;;;30.30;49.30;;;;;;5031669;28;20185;-50
2021/06/28 07:27:10;;;;;;;5.87;4.07;;;30.40;49.50;;;;;;5028150;28;20917;-52
2021/06/28 07:29:35;;;;;;;3.63;3.30;;;30.50;49.10;;;;;;5026163;28;20502;-49
2021/06/28 07:32:01;;;;;;;2.90;2.73;;;30.70;48.90;;;;;;5029420;28;20189;-48
2021/06/28 07:34:27;;;;;;;4.30;3.00;;;30.80;48.10;;;;;;5018355;28;20271;-52
2021/06/28 07:36:53;;;;;;;3.27;3.07;;;30.90;48.30;;;;;;5025087;28;20844;-48
2021/06/28 07:39:18;;;;;;;3.00;2.80;;;31.10;48.10;;;;;;5029820;28;20240;-51
2021/06/28 07:41:44;;;;;;;3.10;2.90;;;31.20;47.50;;;;;;5018390;28;20275;-50
2021/06/28 07:44:09;;;;;;;4.10;3.27;;;31.30;47.20;;;;;;5025809;28;20194;-50
2021/06/28 07:46:36;;;;;;;3.20;3.00;;;31.50;46.40;;;;;;5023063;28;20276;-50
2021/06/28 07:49:02;;;;;;;3.33;3.13;;;31.40;45.30;;;;;;5025317;28;20194;-51
2021/06/28 07:51:36;;;;;;;3.20;3.00;;;31.40;46.80;;;;;;5026960;28;20443;-52
2021/06/28 07:54:06;;;;;;;3.10;2.87;;;31.50;46.50;;;;;;5024136;28;20456;-49
2021/06/28 07:56:33;;;;;;;3.10;2.90;;;31.30;46.20;;;;;;5022302;28;21195;-49
2021/06/28 07:58:59;;;;;;;6.23;2.50;;;31.50;46.70;;;;;;5025710;28;20444;-53
2021/06/28 08:01:25;;;;;;;3.77;3.40;;;31.80;46.10;;;;;;5027577;28;20498;-50
2021/06/28 08:03:50;;;;;;;3.80;2.80;;;32.00;45.70;;;;;;5021205;28;20189;-51
2021/06/28 08:06:18;;;;;;;3.23;3.03;;;32.20;45.00;;;;;;5025068;28;20216;-49
2021/06/28 08:08:44;;;;;;;4.73;3.00;;;32.40;44.80;;;;;;5027367;28;20208;-48
2021/06/28 08:11:12;;;;;;;2.87;2.63;;;32.50;44.30;;;;;;5022038;28;20429;-50
2021/06/28 08:13:42;;;;;;;3.70;3.40;;;32.60;44.30;;;;;;5022123;28;20817;-49
2021/06/28 08:16:08;;;;;;;3.50;3.20;;;32.70;44.70;;;;;;5028146;28;20940;-50
2021/06/28 08:18:34;;;;;;;3.40;3.20;;;32.30;44.70;;;;;;5027261;28;20517;-53
2021/06/28 08:21:01;;;;;;;3.33;3.03;;;32.40;45.10;;;;;;5016661;28;20328;-48
2021/06/28 08:23:27;;;;;;;3.17;2.97;;;32.60;44.40;;;;;;5018416;28;20524;-49
2021/06/28 08:25:52;;;;;;;2.83;2.63;;;32.90;43.60;;;;;;5021799;28;20882;-49
2021/06/28 08:28:18;;;;;;;2.80;2.60;;;33.00;43.70;;;;;;5023394;28;20424;-52
2021/06/28 08:30:44;;;;;;;3.50;3.20;;;33.10;43.10;;;;;;5028453;28;20196;-49
2021/06/28 08:33:09;;;;;;;3.50;2.83;;;33.30;42.60;;;;;;5021173;28;20197;-49
2021/06/28 08:35:35;;;;;;;2.87;2.60;;;33.00;43.20;;;;;;5019769;28;20194;-51
2021/06/28 08:38:03;;;;;;;3.70;3.40;;;32.60;43.60;;;;;;5022087;28;20242;-53
2021/06/28 08:40:29;;;;;;;3.70;2.80;;;32.90;44.00;;;;;;5015100;28;20245;-51
2021/06/28 08:42:55;;;;;;;3.37;3.17;;;33.20;44.10;;;;;;5019179;28;20467;-52
2021/06/28 08:45:22;;;;;;;3.63;3.43;;;33.50;43.10;;;;;;5021092;28;20431;-52
2021/06/28 08:47:48;;;;;;;3.63;3.17;;;32.90;42.70;;;;;;5020312;28;20240;-51
2021/06/28 08:50:14;;;;;;;3.50;3.10;;;32.60;42.90;;;;;;5024818;28;20467;-53
2021/06/28 08:52:43;;;;;;;3.70;3.00;;;32.80;43.50;;;;;;5019566;28;20235;-52
2021/06/28 08:55:12;;;;;;;3.13;2.93;;;33.20;42.60;;;;;;5019683;28;20527;-53
2021/06/28 08:57:38;;;;;;;3.00;2.80;;;33.60;41.70;;;;;;5025698;28;20448;-53
2021/06/28 09:00:07;;;;;;;3.33;3.03;;;33.70;41.70;;;;;;5019387;28;20435;-53
2021/06/28 09:02:33;;;;;;;3.40;3.17;;;34.00;41.90;;;;;;5023605;28;20876;-48
2021/06/28 09:05:00;;;;;;;3.23;2.93;;;34.20;40.90;;;;;;5024769;28;20439;-53
2021/06/28 09:07:26;;;;;;;3.43;3.23;;;34.00;38.80;;;;;;5029244;28;20280;-52
2021/06/28 09:09:52;;;;;;;2.80;2.70;;;34.10;39.70;;;;;;5026566;28;20440;-53
2021/06/28 09:12:18;;;;;;;2.80;2.60;;;34.40;39.50;;;;;;5025305;28;20439;-52
2021/06/28 09:14:50;;;;;;;2.90;2.70;;;34.40;38.50;;;;;;5025059;28;20200;-49
2021/06/28 09:17:33;;;;;;;2.90;2.73;;;34.60;39.70;;;;;;5028294;28;20783;-53
2021/06/28 09:20:22;;;;;;;3.10;2.90;;;34.80;38.60;;;;;;5023037;28;21223;-54
2021/06/28 09:22:50;;;;;;;2.70;2.50;;;35.00;39.40;;;;;;5015772;28;20515;-51
2021/06/28 09:25:37;;;;;;;3.10;2.90;;;35.10;37.80;;;;;;5024016;28;20448;-52
2021/06/28 09:28:04;;;;;;;2.50;2.27;;;35.30;37.20;;;;;;5022995;28;20440;-51
2021/06/28 09:30:30;;;;;;;6.53;2.70;;;35.40;35.80;;;;;;5026725;28;20523;-53
2021/06/28 09:33:01;;;;;;;2.67;2.47;;;35.50;36.40;;;;;;5029282;28;20855;-54
2021/06/28 09:35:36;;;;;;;2.93;2.73;;;35.70;37.10;;;;;;5018432;28;20429;-52
2021/06/28 09:38:28;;;;;;;2.63;2.53;;;35.70;36.00;;;;;;5024058;28;20931;-49
2021/06/28 09:40:54;;;;;;;2.40;2.30;;;35.90;37.40;;;;;;5019727;28;20484;-50
2021/06/28 09:43:27;;;;;;;2.40;2.30;;;36.00;35.70;;;;;;5027715;28;20953;-51
2021/06/28 09:45:56;;;;;;;3.27;2.90;;;36.10;35.70;;;;;;5028495;28;20200;-50
2021/06/28 09:48:31;;;;;;;2.67;2.57;;;36.10;35.00;;;;;;5023378;28;20799;-50
2021/06/28 09:51:25;;;;;;;3.17;2.97;;;35.70;35.20;;;;;;5014376;28;20411;-52
2021/06/28 09:53:53;;;;;;;2.83;2.63;;;35.70;36.80;;;;;;5024085;28;20466;-50
2021/06/28 09:56:34;;;;;;;4.27;2.93;;;35.90;36.50;;;;;;5029622;28;20511;-50
2021/06/28 09:59:26;;;;;;;2.67;2.53;;;36.20;37.20;;;;;;5029274;28;20824;-54
2021/06/28 10:02:18;;;;;;;2.80;2.60;;;36.40;35.20;;;;;;5026816;28;20574;-51
2021/06/28 10:05:02;;;;;;;2.83;2.63;;;36.50;33.30;;;;;;5029838;28;20931;-53
2021/06/28 10:07:34;;;;;;;2.70;2.60;;;36.60;32.70;;;;;;5032717;28;20448;-49
2021/06/28 10:10:15;;;;;;;2.30;2.20;;;36.80;33.20;;;;;;5032250;28;20440;-49
2021/06/28 10:12:47;;;;;;;2.50;2.30;;;36.90;32.10;;;;;;5026419;28;21012;-52
2021/06/28 10:15:17;;;;;;;2.33;2.23;;;36.80;33.00;;;;;;5032706;28;20448;-49
2021/06/28 10:17:44;;;;;;;2.30;2.20;;;37.00;33.90;;;;;;5034612;28;20420;-52
2021/06/28 10:20:12;;;;;;;2.70;2.50;;;37.20;32.70;;;;;;5033543;28;20497;-53
2021/06/28 10:22:39;;;;;;;3.67;2.13;;;37.40;32.60;;;;;;5032676;28;20444;-52
2021/06/28 10:25:07;;;;;;;2.43;2.33;;;36.70;30.80;;;;;;5032842;28;20431;-52
2021/06/28 10:27:34;;;;;;;2.63;1.90;;;36.70;30.80;;;;;;5031043;28;21187;-48
2021/06/28 10:30:00;;;;;;;2.47;2.27;;;36.80;31.00;;;;;;5029845;28;20501;-52
2021/06/28 10:32:30;;;;;;;2.30;2.10;;;37.10;30.40;;;;;;5032430;28;20427;-53
2021/06/28 10:34:56;;;;;;;1.97;1.87;;;37.50;30.40;;;;;;5032443;28;20439;-53
2021/06/28 10:37:37;;;;;;;2.17;1.97;;;37.60;29.90;;;;;;5023815;28;20514;-52
2021/06/28 10:40:08;;;;;;;2.27;2.17;;;37.90;30.60;;;;;;5024895;28;20486;-53
2021/06/28 10:42:37;;;;;;;4.17;2.30;;;38.00;29.60;;;;;;5033022;28;20824;-52
2021/06/28 10:45:05;;;;;;;2.57;2.40;;;38.30;29.60;;;;;;5032891;28;20581;-52
2021/06/28 10:47:31;;;;;;;2.67;2.07;;;38.50;29.70;;;;;;5032765;28;20434;-53
2021/06/28 10:49:58;;;;;;;2.40;2.30;;;38.60;29.70;;;;;;5033105;28;20854;-53
2021/06/28 10:52:39;;;;;;;2.47;2.37;;;38.80;30.40;;;;;;5033987;28;20220;-50
2021/06/28 10:55:13;;;;;;;3.10;2.90;;;38.70;29.50;;;;;;5032582;28;20447;-51
2021/06/28 10:57:40;;;;;;;2.50;2.40;;;38.80;29.50;;;;;;5029388;28;20809;-52
2021/06/28 11:00:06;;;;;;;3.30;3.00;;;38.90;30.10;;;;;;5025785;28;20431;-53
2021/06/28 11:02:35;;;;;;;3.07;2.87;;;39.00;29.50;;;;;;5032970;28;20479;-52
2021/06/28 11:05:04;;;;;;;2.53;2.43;;;38.90;28.70;;;;;;5031585;28;20833;-52
2021/06/28 11:07:45;;;;;;;2.70;2.60;;;38.00;29.50;;;;;;5029545;28;20446;-53
2021/06/28 11:10:35;;;;;;;3.30;2.80;;;37.40;30.40;;;;;;5033013;28;20427;-51
2021/06/28 11:13:26;;;;;;;2.87;2.77;;;36.90;30.90;;;;;;5032971;28;20970;-52
2021/06/28 11:15:52;;;;;;;3.50;3.30;;;37.40;30.70;;;;;;5029097;28;20444;-53
2021/06/28 11:18:30;;;;;;;3.00;2.90;;;37.90;31.20;;;;;;5028680;28;20485;-51
2021/06/28 11:20:56;;;;;;;2.90;2.80;;;38.20;31.90;;;;;;5032041;28;20228;-51
2021/06/28 11:23:22;;;;;;;3.10;2.90;;;38.40;32.00;;;;;;5030127;28;20511;-48
2021/06/28 11:25:56;;;;;;;3.13;2.93;;;38.20;30.20;;;;;;5030883;28;21010;-53
2021/06/28 11:28:25;;;;;;;3.70;3.33;;;38.30;31.10;;;;;;5033128;28;20207;-53
2021/06/28 11:31:11;;;;;;;3.20;3.00;;;38.50;30.80;;;;;;5022279;28;20444;-52
2021/06/28 11:33:44;;;;;;;3.23;3.03;;;38.70;30.60;;;;;;5028142;28;20846;-53
2021/06/28 11:36:22;;;;;;;3.10;2.90;;;38.80;29.20;;;;;;5027574;28;20451;-52
2021/06/28 11:38:47;;;;;;;3.30;3.10;;;38.60;30.00;;;;;;5030032;28;20441;-51
2021/06/28 11:41:15;;;;;;;4.37;3.00;;;38.60;32.60;;;;;;5022467;28;20989;-52
2021/06/28 11:43:55;;;;;;;3.30;2.93;;;38.70;32.20;;;;;;5024040;28;20197;-52
2021/06/28 11:46:48;;;;;;;4.23;2.70;;;38.90;31.00;;;;;;5025477;28;20466;-52
2021/06/28 11:49:26;;;;;;;3.00;2.53;;;39.10;31.30;;;;;;5029382;28;20478;-51
2021/06/28 11:51:52;;;;;;;3.27;3.07;;;39.20;31.10;;;;;;5032872;28;20807;-52
2021/06/28 11:54:20;;;;;;;2.57;2.37;;;39.30;30.40;;;;;;5025667;28;20498;-51
2021/06/28 11:57:05;;;;;;;2.90;2.80;;;39.50;31.20;;;;;;5020828;28;20450;-53
2021/06/28 11:59:32;;;;;;;3.10;2.83;;;39.60;30.80;;;;;;5027022;28;20451;-51
2021/06/28 12:02:01;;;;;;;3.50;3.30;;;39.80;29.80;;;;;;5029081;28;20487;-52
2021/06/28 12:04:32;;;;;;;3.20;3.00;;;39.90;29.80;;;;;;5032024;28;20449;-52
2021/06/28 12:06:59;;;;;;;3.00;2.80;;;40.00;29.10;;;;;;5020588;28;20448;-52
2021/06/28 12:09:27;;;;;;;3.30;3.10;;;40.00;29.50;;;;;;5032082;28;20438;-51
2021/06/28 12:11:58;;;;;;;3.47;2.90;;;40.20;29.80;;;;;;5031245;28;20525;-57
2021/06/28 12:14:39;;;;;;;3.20;2.90;;;40.20;30.00;;;;;;5028895;28;20953;-54
2021/06/28 12:17:25;;;;;;;2.83;2.63;;;40.20;29.10;;;;;;5019512;28;20455;-52
2021/06/28 12:20:08;;;;;;;3.73;3.43;;;40.10;29.90;;;;;;5025249;28;20447;-54
2021/06/28 12:22:41;;;;;;;3.03;2.83;;;40.10;29.40;;;;;;5028665;28;20529;-53
2021/06/28 12:25:09;;;;;;;5.13;3.23;;;40.00;29.40;;;;;;5027514;28;20526;-54
2021/06/28 12:27:37;;;;;;;3.37;3.17;;;39.80;29.90;;;;;;5029325;28;20553;-54
2021/06/28 12:30:14;;;;;;;3.00;2.80;;;39.80;29.90;;;;;;5030603;28;20467;-54
2021/06/28 12:32:59;;;;;;;4.10;3.27;;;39.70;29.60;;;;;;5027985;28;20455;-53
2021/06/28 12:35:27;;;;;;;2.73;2.60;;;39.70;30.30;;;;;;5027934;28;20521;-53
2021/06/28 12:37:59;;;;;;;2.93;2.70;;;39.80;30.50;;;;;;5025758;28;20440;-50
2021/06/28 12:40:32;;;;;;;3.87;2.90;;;39.90;30.60;;;;;;5022917;28;20543;-53
2021/06/28 12:43:01;;;;;;;3.20;3.00;;;39.90;30.10;;;;;;5027972;28;20475;-53
2021/06/28 12:45:45;;;;;;;3.10;2.90;;;39.90;29.80;;;;;;5028042;28;20443;-52
2021/06/28 12:48:16;;;;;;;3.40;3.20;;;39.90;30.40;;;;;;5026932;28;20455;-52
2021/06/28 12:50:50;;;;;;;4.03;3.67;;;39.90;30.50;;;;;;5026211;28;20439;-51
2021/06/28 12:53:17;;;;;;;2.77;2.50;;;39.80;30.90;;;;;;5026504;28;20475;-52